Terminal Aerodrome Forecast
Issued by NWS Paducah, KY

Home | Current Version | Previous Version | Text Only | Print | Product List | Glossary On
Versions: 1 2 3 4 5 6 7 8 9 10 11 12 13 14 15 16 17 18 19 20 21 22
000
FTUS43 KPAH 181700
TAFPAH
TAF
KPAH 181722Z 1818/1918 21005KT P6SM SCT025
     FM182100 28004KT P6SM BKN050
     FM190000 21003KT P6SM SCT040
     FM190600 00000KT 4SM BR SCT008
     FM191400 22005KT P6SM BKN050=

USA.gov is the U.S. government's official web portal to all federal, state and local government web resources and services.